Time;durP1;ratioP1;P1;durP2;ratioP2;P2;SDS_P1;SDS_P2;PMS_P1;PMS_P2;Temp;Humidity;BMP_temperature;BMP_pressure;BME280_temperature;BME280_humidity;BME280_pressure;Samples;Min_cycle;Max_cycle;Signal;HPM_P1;HPM_P2
2022/10/01 00:02:24;;;;;;;40.40;20.30;;;;;;;8.23;89.12;100077.20;105804;1279;22610;-75
2022/10/01 00:04:56;;;;;;;37.60;21.10;;;;;;;8.23;89.29;100080.23;105784;1279;22533;-76
2022/10/01 00:07:28;;;;;;;36.60;20.50;;;;;;;8.22;89.21;100080.35;105837;1281;22797;-74
2022/10/01 00:10:00;;;;;;;37.50;20.40;;;;;;;8.21;89.43;100078.56;105792;1279;24293;-76
2022/10/01 00:12:31;;;;;;;36.60;20.30;;;;;;;8.19;89.24;100075.60;105863;1280;25530;-76
2022/10/01 00:15:07;;;;;;;38.10;20.60;;;;;;;8.19;89.34;100072.85;105833;1279;22566;-77
2022/10/01 00:17:38;;;;;;;36.90;19.10;;;;;;;8.18;89.26;100075.02;105786;1281;22542;-76
2022/10/01 00:20:11;;;;;;;44.80;20.50;;;;;;;8.17;89.33;100075.25;105811;1281;22602;-76
2022/10/01 00:22:42;;;;;;;37.60;19.60;;;;;;;8.16;89.28;100075.77;105919;1279;22854;-76
2022/10/01 00:25:14;;;;;;;37.90;19.20;;;;;;;8.14;89.19;100070.55;105813;1281;22627;-77
2022/10/01 00:27:47;;;;;;;37.10;18.90;;;;;;;8.11;89.30;100075.75;105836;1279;22636;-76
2022/10/01 00:30:20;;;;;;;33.00;18.00;;;;;;;8.08;89.11;100077.63;105764;1279;24300;-77
2022/10/01 00:32:54;;;;;;;34.70;17.90;;;;;;;8.06;89.04;100079.09;105843;1279;24388;-75
2022/10/01 00:35:26;;;;;;;37.50;19.50;;;;;;;8.05;89.14;100078.46;105869;1279;22566;-77
2022/10/01 00:37:57;;;;;;;33.50;17.00;;;;;;;8.04;89.03;100074.30;105825;1278;25472;-76
2022/10/01 00:40:29;;;;;;;37.00;19.40;;;;;;;8.03;88.95;100074.66;105845;1279;26694;-77
2022/10/01 00:43:02;;;;;;;42.20;19.20;;;;;;;8.02;89.13;100074.18;106083;1278;26674;-75
2022/10/01 00:45:35;;;;;;;38.30;19.00;;;;;;;8.00;89.04;100072.61;105903;1279;25484;-76
2022/10/01 00:48:06;;;;;;;34.80;18.70;;;;;;;7.98;89.00;100076.66;105874;1279;22551;-76
2022/10/01 00:50:38;;;;;;;35.30;17.10;;;;;;;7.94;89.01;100076.61;105857;1278;24378;-75
2022/10/01 00:53:12;;;;;;;34.70;17.40;;;;;;;7.91;88.90;100083.40;105884;1279;24775;-76
2022/10/01 00:55:46;;;;;;;33.10;17.90;;;;;;;7.90;88.74;100086.48;106078;1279;22614;-76
2022/10/01 00:58:19;;;;;;;34.40;16.90;;;;;;;7.86;88.51;100085.77;105905;1278;24384;-76
2022/10/01 01:00:54;;;;;;;32.30;15.80;;;;;;;7.83;88.54;100084.71;105818;1279;22766;-76
2022/10/01 01:03:26;;;;;;;31.40;15.70;;;;;;;7.82;88.28;100080.72;106005;1279;24339;-76
2022/10/01 01:05:57;;;;;;;34.30;16.90;;;;;;;7.78;88.26;100077.63;105851;1279;22644;-75
2022/10/01 01:08:29;;;;;;;32.10;16.40;;;;;;;7.73;88.18;100073.49;105869;1279;24434;-76
2022/10/01 01:11:11;;;;;;;33.70;16.70;;;;;;;7.70;88.18;100070.23;105823;1279;25331;-76
2022/10/01 01:13:54;;;;;;;31.80;15.90;;;;;;;7.65;88.20;100067.10;105778;1279;23182;-77
2022/10/01 01:16:32;;;;;;;35.30;16.80;;;;;;;7.60;88.16;100067.58;105936;1277;23064;-76
2022/10/01 01:19:13;;;;;;;32.80;16.50;;;;;;;7.56;88.20;100064.95;105842;1279;22624;-75
2022/10/01 01:21:50;;;;;;;33.10;15.90;;;;;;;7.51;88.21;100067.71;105971;1278;25252;-77
2022/10/01 01:24:48;;;;;;;29.50;16.10;;;;;;;7.45;88.24;100068.11;105823;1279;24008;-75
2022/10/01 01:27:31;;;;;;;35.10;16.20;;;;;;;7.39;88.14;100066.33;105887;1279;22714;-77
2022/10/01 01:30:07;;;;;;;33.00;14.80;;;;;;;7.34;88.08;100061.28;105754;1281;23220;-77
2022/10/01 01:32:47;;;;;;;32.90;16.20;;;;;;;7.31;88.09;100060.86;105774;1279;25654;-76
2022/10/01 01:35:25;;;;;;;34.40;17.20;;;;;;;7.28;88.11;100053.05;105856;1278;24277;-77
2022/10/01 01:38:02;;;;;;;29.20;15.00;;;;;;;7.25;88.01;100054.45;106108;1279;22892;-76
2022/10/01 01:40:36;;;;;;;32.50;14.70;;;;;;;7.21;88.03;100056.45;105813;1279;22796;-76
2022/10/01 01:43:11;;;;;;;31.40;15.00;;;;;;;7.19;88.08;100055.56;105975;1278;23751;-75
2022/10/01 01:45:45;;;;;;;29.10;13.80;;;;;;;7.18;88.17;100052.13;105857;1279;24445;-77
2022/10/01 01:48:16;;;;;;;29.20;13.90;;;;;;;7.18;88.20;100048.16;105843;1279;22644;-76
2022/10/01 01:50:54;;;;;;;34.30;16.50;;;;;;;7.19;88.06;100047.24;105834;1278;22590;-77
2022/10/01 01:53:26;;;;;;;31.00;14.30;;;;;;;7.20;88.28;100046.90;105827;1278;24374;-77
2022/10/01 01:55:59;;;;;;;30.80;15.10;;;;;;;7.20;88.41;100043.38;105876;1279;25473;-77
2022/10/01 01:58:32;;;;;;;35.80;17.50;;;;;;;7.18;88.34;100043.08;105794;1279;23096;-76
2022/10/01 02:01:04;;;;;;;35.70;16.30;;;;;;;7.15;88.48;100041.20;105964;1279;22604;-75
2022/10/01 02:03:36;;;;;;;34.90;17.10;;;;;;;7.11;88.56;100039.41;105893;1279;24811;-77
2022/10/01 02:06:25;;;;;;;31.20;16.30;;;;;;;7.08;88.64;100039.77;105887;1279;24264;-76
2022/10/01 02:09:03;;;;;;;32.20;16.70;;;;;;;7.04;88.64;100043.05;105882;1278;24291;-76
2022/10/01 02:11:41;;;;;;;33.80;17.10;;;;;;;6.99;88.84;100040.89;105894;1279;22697;-75
2022/10/01 02:14:21;;;;;;;33.70;16.30;;;;;;;6.97;88.97;100038.20;105955;1279;24865;-76
2022/10/01 02:17:00;;;;;;;39.80;17.60;;;;;;;6.93;88.80;100038.17;105851;1279;22568;-75
2022/10/01 02:19:39;;;;;;;33.80;16.60;;;;;;;6.89;88.81;100033.76;105765;1279;26517;-77
2022/10/01 02:22:17;;;;;;;39.20;18.00;;;;;;;6.84;88.70;100030.42;105879;1279;24432;-75
2022/10/01 02:24:55;;;;;;;38.60;18.20;;;;;;;6.80;88.62;100030.08;105852;1279;26578;-75
2022/10/01 02:27:33;;;;;;;42.40;19.10;;;;;;;6.76;88.98;100031.95;105962;1279;22727;-77
2022/10/01 02:30:08;;;;;;;40.90;18.70;;;;;;;6.73;89.02;100028.72;106033;1276;22563;-76
2022/10/01 02:32:43;;;;;;;41.20;19.50;;;;;;;6.70;89.13;100025.81;105914;1279;25400;-76
2022/10/01 02:35:19;;;;;;;36.50;17.30;;;;;;;6.68;89.16;100019.90;105964;1279;24267;-76
2022/10/01 02:37:55;;;;;;;40.50;17.80;;;;;;;6.67;89.26;100018.99;105868;1279;24655;-75
2022/10/01 02:40:28;;;;;;;35.80;16.90;;;;;;;6.67;89.53;100017.23;105913;1278;22645;-76
2022/10/01 02:43:06;;;;;;;35.10;15.40;;;;;;;6.68;89.78;100015.61;105832;1278;22560;-76
2022/10/01 02:45:40;;;;;;;36.70;16.20;;;;;;;6.69;89.92;100012.71;105885;1279;22626;-76
2022/10/01 02:48:16;;;;;;;30.80;15.20;;;;;;;6.69;89.99;100006.83;105856;1279;25564;-76
2022/10/01 02:50:51;;;;;;;29.60;14.60;;;;;;;6.70;90.05;100008.47;105794;1278;25368;-76
2022/10/01 02:53:27;;;;;;;30.50;13.70;;;;;;;6.71;90.11;100006.61;105761;1279;25260;-75
2022/10/01 02:56:02;;;;;;;32.50;13.70;;;;;;;6.70;90.11;100003.63;105820;1279;22565;-75
2022/10/01 02:58:35;;;;;;;31.00;15.30;;;;;;;6.70;90.08;100005.23;105918;1278;24040;-76
2022/10/01 03:01:08;;;;;;;34.50;20.40;;;;;;;6.70;90.08;100005.47;105943;1279;23034;-77
2022/10/01 03:03:41;;;;;;;39.30;22.20;;;;;;;6.70;89.99;100007.69;105969;1279;22637;-77
2022/10/01 03:06:13;;;;;;;37.10;21.00;;;;;;;6.68;90.06;100006.58;105819;1279;23597;-77
2022/10/01 03:08:44;;;;;;;40.90;21.30;;;;;;;6.67;90.00;100006.23;105782;1278;22872;-77
2022/10/01 03:11:15;;;;;;;36.70;19.00;;;;;;;6.65;90.05;100009.16;105879;1278;25944;-76
2022/10/01 03:13:47;;;;;;;37.30;19.30;;;;;;;6.62;90.16;100007.67;105801;1279;24273;-76
2022/10/01 03:16:18;;;;;;;35.80;18.10;;;;;;;6.62;90.11;100000.23;105880;1278;24288;-76
2022/10/01 03:18:49;;;;;;;39.30;21.60;;;;;;;6.61;90.09;100004.30;105810;1278;22553;-76
2022/10/01 03:21:21;;;;;;;43.30;23.40;;;;;;;6.62;90.31;99999.92;105852;1278;26702;-77
2022/10/01 03:23:52;;;;;;;42.70;25.70;;;;;;;6.63;90.26;100000.27;105910;1279;24194;-75
2022/10/01 03:26:23;;;;;;;44.70;23.40;;;;;;;6.63;90.45;99997.66;105836;1279;22559;-76
2022/10/01 03:28:54;;;;;;;46.70;25.60;;;;;;;6.61;90.55;99992.96;105762;1278;22548;-77
2022/10/01 03:31:25;;;;;;;47.30;26.50;;;;;;;6.60;90.60;99995.48;105843;1279;22646;-76
2022/10/01 03:33:59;;;;;;;52.60;29.10;;;;;;;6.58;90.55;99995.64;105851;1279;22565;-76
2022/10/01 03:36:30;;;;;;;47.80;28.50;;;;;;;6.56;90.66;99991.43;105986;1279;22563;-75
2022/10/01 03:39:02;;;;;;;47.10;26.20;;;;;;;6.56;90.72;99988.81;105788;1279;22571;-77
2022/10/01 03:41:34;;;;;;;43.30;26.00;;;;;;;6.56;90.84;99990.42;105706;1279;23093;-76
2022/10/01 03:44:05;;;;;;;43.30;25.60;;;;;;;6.56;91.04;99986.30;105824;1278;22635;-75
2022/10/01 03:46:36;;;;;;;40.90;20.10;;;;;;;6.56;91.02;99983.20;105846;1279;22773;-76
2022/10/01 03:49:07;;;;;;;37.60;17.90;;;;;;;6.55;91.15;99981.18;105813;1279;22588;-77
2022/10/01 03:51:39;;;;;;;35.00;18.30;;;;;;;6.55;91.30;99983.25;105806;1279;24011;-77
2022/10/01 03:54:10;;;;;;;35.40;17.40;;;;;;;6.55;91.31;99990.14;105841;1279;22730;-76
2022/10/01 03:56:42;;;;;;;37.90;17.00;;;;;;;6.53;91.20;99986.95;105743;1279;25311;-76
2022/10/01 03:59:13;;;;;;;38.50;18.00;;;;;;;6.51;91.18;99984.10;105897;1279;22559;-76
2022/10/01 04:01:44;;;;;;;35.40;19.70;;;;;;;6.50;91.17;99986.77;105866;1279;22546;-76
2022/10/01 04:04:17;;;;;;;42.70;20.60;;;;;;;6.48;91.13;99985.66;105857;1279;26107;-74
2022/10/01 04:06:48;;;;;;;35.80;21.20;;;;;;;6.46;91.30;99984.24;105822;1279;23138;-77
2022/10/01 04:09:19;;;;;;;37.10;19.60;;;;;;;6.45;91.28;99986.56;105884;1279;23252;-76
2022/10/01 04:11:51;;;;;;;34.50;19.00;;;;;;;6.44;91.35;99983.36;105827;1278;25032;-78
2022/10/01 04:14:23;;;;;;;32.80;17.60;;;;;;;6.43;91.16;99982.36;105908;1279;22563;-76
2022/10/01 04:16:54;;;;;;;38.80;17.50;;;;;;;6.43;91.17;99978.89;105847;1279;22660;-76
2022/10/01 04:19:25;;;;;;;42.90;19.30;;;;;;;6.42;91.30;99980.52;105865;1278;25259;-77
2022/10/01 04:21:56;;;;;;;37.30;16.90;;;;;;;6.40;91.46;99981.77;105940;1278;24212;-76
2022/10/01 04:24:27;;;;;;;38.50;17.40;;;;;;;6.39;91.47;99976.74;105954;1279;22802;-77
2022/10/01 04:26:58;;;;;;;35.70;16.60;;;;;;;6.37;91.47;99977.24;105902;1279;22756;-76
2022/10/01 04:29:30;;;;;;;39.50;19.10;;;;;;;6.36;91.65;99977.85;105952;1278;22724;-76
2022/10/01 04:32:03;;;;;;;49.10;18.90;;;;;;;6.34;91.71;99980.21;106034;1278;23955;-76
2022/10/01 04:34:53;;;;;;;46.30;17.00;;;;;;;6.32;91.97;99978.23;106296;1278;22881;-77
2022/10/01 04:37:26;;;;;;;35.70;16.20;;;;;;;6.33;92.21;99973.77;106547;1278;22489;-76
2022/10/01 04:39:57;;;;;;;49.20;19.30;;;;;;;6.33;92.29;99975.59;107709;1278;22597;-76
2022/10/01 04:42:28;;;;;;;43.40;17.70;;;;;;;6.35;92.48;99975.20;108161;1277;23924;-76
2022/10/01 04:44:59;;;;;;;44.10;18.20;;;;;;;6.35;92.63;99981.66;106933;1278;25421;-77
2022/10/01 04:47:31;;;;;;;41.90;15.60;;;;;;;6.36;92.76;99979.73;105905;1278;25561;-75
2022/10/01 04:50:02;;;;;;;62.00;17.00;;;;;;;6.37;92.83;99980.06;105817;1279;22748;-76
2022/10/01 04:52:33;;;;;;;49.50;16.60;;;;;;;6.39;92.97;99976.13;105865;1277;24236;-77
2022/10/01 04:55:05;;;;;;;49.80;18.30;;;;;;;6.39;93.13;99978.58;105876;1279;22580;-74
2022/10/01 04:57:38;;;;;;;45.70;18.60;;;;;;;6.40;93.12;99977.02;105907;1278;23338;-73
2022/10/01 05:00:13;;;;;;;38.20;17.60;;;;;;;6.41;93.13;99977.07;105901;1278;22550;-73
2022/10/01 05:02:47;;;;;;;42.70;15.90;;;;;;;6.43;93.29;99974.30;106078;1279;22537;-73
2022/10/01 05:05:21;;;;;;;31.60;14.60;;;;;;;6.45;93.40;99974.86;106082;1278;27747;-73
2022/10/01 05:07:52;;;;;;;35.70;15.20;;;;;;;6.46;93.27;99977.49;105929;1278;22682;-71
2022/10/01 05:10:25;;;;;;;33.90;15.10;;;;;;;6.49;93.31;99974.53;105945;1278;25378;-71
2022/10/01 05:12:56;;;;;;;36.60;16.30;;;;;;;6.52;93.35;99974.48;106082;1278;25389;-72
2022/10/01 05:15:28;;;;;;;34.70;15.10;;;;;;;6.54;93.45;99973.59;105869;1278;22537;-73
2022/10/01 05:17:59;;;;;;;38.70;14.60;;;;;;;6.56;93.38;99975.29;105937;1278;26582;-71
2022/10/01 05:20:32;;;;;;;42.00;15.40;;;;;;;6.55;93.47;99974.21;105931;1278;22610;-73
2022/10/01 05:23:03;;;;;;;35.90;16.30;;;;;;;6.54;93.42;99972.67;106133;1278;24388;-74
2022/10/01 05:25:35;;;;;;;39.70;16.90;;;;;;;6.54;93.58;99972.73;105944;1278;24238;-73
2022/10/01 05:28:06;;;;;;;35.70;14.80;;;;;;;6.56;93.81;99973.04;105940;1278;22743;-72
2022/10/01 05:30:37;;;;;;;36.10;16.20;;;;;;;6.58;93.80;99967.54;106005;1278;22555;-71
2022/10/01 05:33:09;;;;;;;40.00;15.80;;;;;;;6.61;94.01;99973.27;106001;1278;26331;-73
2022/10/01 05:35:42;;;;;;;35.80;16.30;;;;;;;6.63;94.14;99974.85;105941;1279;22604;-72
2022/10/01 05:38:13;;;;;;;37.50;18.70;;;;;;;6.65;94.13;99973.17;105933;1278;25861;-73
2022/10/01 05:40:46;;;;;;;54.10;27.10;;;;;;;6.68;94.31;99972.18;105916;1279;26615;-74
2022/10/01 05:43:18;;;;;;;50.40;26.50;;;;;;;6.71;94.36;99969.04;105952;1278;22659;-73
2022/10/01 05:45:50;;;;;;;55.60;26.10;;;;;;;6.74;94.51;99966.77;106057;1278;24703;-73
2022/10/01 05:48:21;;;;;;;42.80;20.90;;;;;;;6.77;94.56;99964.89;105900;1278;25432;-74
2022/10/01 05:50:53;;;;;;;44.50;22.30;;;;;;;6.80;94.70;99964.38;105951;1278;22744;-72
2022/10/01 05:53:24;;;;;;;46.00;24.10;;;;;;;6.83;94.74;99961.39;105969;1279;22666;-71
2022/10/01 05:55:59;;;;;;;82.60;45.70;;;;;;;6.85;94.68;99956.00;106004;1278;22805;-73
2022/10/01 05:58:30;;;;;;;96.70;57.80;;;;;;;6.87;94.73;99954.00;105907;1278;22575;-73
2022/10/01 06:01:01;;;;;;;63.20;34.70;;;;;;;6.90;94.87;99952.05;105911;1278;25665;-72
2022/10/01 06:03:33;;;;;;;52.50;28.40;;;;;;;6.92;94.94;99951.87;105879;1279;24276;-73
2022/10/01 06:06:04;;;;;;;64.80;34.10;;;;;;;6.95;94.86;99953.32;105965;1278;25383;-73
2022/10/01 06:08:37;;;;;;;46.10;24.10;;;;;;;6.98;95.00;99956.33;105967;1279;26509;-73
2022/10/01 06:11:08;;;;;;;40.90;19.30;;;;;;;7.01;95.10;99954.66;106000;1279;24776;-73
2022/10/01 06:13:44;;;;;;;34.30;17.50;;;;;;;7.05;95.18;99956.36;105941;1278;24289;-73
2022/10/01 06:16:15;;;;;;;39.30;18.30;;;;;;;7.07;95.15;99958.77;105956;1279;24208;-72
2022/10/01 06:18:50;;;;;;;36.30;17.40;;;;;;;7.10;95.21;99954.59;106014;1279;25417;-75
2022/10/01 06:21:22;;;;;;;38.10;17.70;;;;;;;7.12;95.29;99949.77;106253;1278;22574;-73
2022/10/01 06:23:54;;;;;;;34.70;16.20;;;;;;;7.14;95.08;99955.56;105981;1279;25311;-72
2022/10/01 06:26:25;;;;;;;37.70;18.10;;;;;;;7.17;95.21;99959.44;106078;1278;25635;-72
2022/10/01 06:28:57;;;;;;;40.00;18.90;;;;;;;7.20;95.41;99959.41;106072;1277;22577;-74
2022/10/01 06:31:29;;;;;;;38.20;18.90;;;;;;;7.22;95.45;99960.19;105992;1279;22710;-72
2022/10/01 06:34:00;;;;;;;39.10;18.10;;;;;;;7.27;95.55;99959.11;106036;1279;26522;-72
2022/10/01 06:36:33;;;;;;;38.40;16.70;;;;;;;7.33;95.92;99959.67;106015;1277;22568;-71
2022/10/01 06:39:04;;;;;;;39.50;18.80;;;;;;;7.36;95.89;99957.19;106042;1279;26464;-72
2022/10/01 06:41:35;;;;;;;40.40;19.60;;;;;;;7.40;95.70;99952.09;106095;1278;23377;-73
2022/10/01 06:44:07;;;;;;;46.30;19.80;;;;;;;7.44;96.10;99949.79;106361;1278;23465;-72
2022/10/01 06:46:38;;;;;;;44.30;21.90;;;;;;;7.46;96.11;99950.17;106350;1278;22576;-72
2022/10/01 06:49:12;;;;;;;48.00;22.70;;;;;;;7.49;96.20;99947.63;106559;1278;23946;-73
2022/10/01 06:54:32;;;;;;;57.30;25.50;;;;;;;7.59;96.47;99958.63;107533;1278;26489;-72
2022/10/01 06:57:04;;;;;;;48.80;24.30;;;;;;;7.64;96.51;99956.01;107086;1275;22715;-72
2022/10/01 06:59:36;;;;;;;51.40;23.90;;;;;;;7.70;96.64;99955.50;106068;1279;24582;-72
2022/10/01 07:02:15;;;;;;;50.50;25.30;;;;;;;7.77;96.74;99954.88;106056;1278;22550;-73
2022/10/01 07:04:48;;;;;;;50.30;24.60;;;;;;;7.83;96.98;99950.08;106180;1278;22653;-72
2022/10/01 07:07:23;;;;;;;52.60;24.00;;;;;;;7.89;96.76;99941.64;106037;1278;22716;-73
2022/10/01 07:09:54;;;;;;;50.60;26.30;;;;;;;7.96;96.78;99940.64;106026;1279;22541;-72
2022/10/01 07:12:26;;;;;;;51.60;24.80;;;;;;;8.01;97.10;99940.29;106056;1278;23228;-72
2022/10/01 07:14:57;;;;;;;50.10;25.10;;;;;;;8.08;97.01;99938.47;105973;1279;22488;-72
2022/10/01 07:17:29;;;;;;;55.40;27.10;;;;;;;8.14;97.01;99934.52;106043;1278;22664;-73
2022/10/01 07:20:00;;;;;;;55.80;26.20;;;;;;;8.21;97.13;99931.55;106090;1278;22600;-71
2022/10/01 07:22:32;;;;;;;48.50;25.50;;;;;;;8.28;97.27;99924.69;105989;1279;22574;-72
2022/10/01 07:25:03;;;;;;;46.40;23.40;;;;;;;8.33;97.55;99924.98;106061;1278;25468;-71
2022/10/01 07:27:35;;;;;;;45.50;22.90;;;;;;;8.40;98.04;99921.94;106107;1278;22573;-73
2022/10/01 07:30:09;;;;;;;50.90;23.90;;;;;;;8.46;98.17;99922.09;105974;1278;22597;-73
2022/10/01 07:32:43;;;;;;;47.30;25.30;;;;;;;8.54;98.30;99921.70;105948;1278;22565;-72
2022/10/01 07:35:15;;;;;;;47.40;25.20;;;;;;;8.61;98.28;99917.61;105992;1278;23936;-74
2022/10/01 07:37:46;;;;;;;45.00;25.60;;;;;;;8.68;98.57;99913.15;105939;1279;22572;-73
2022/10/01 07:40:19;;;;;;;47.70;24.30;;;;;;;8.75;98.57;99910.25;105956;1278;23114;-73
2022/10/01 07:42:56;;;;;;;44.60;24.20;;;;;;;8.81;98.60;99909.98;106101;1278;22581;-74
2022/10/01 07:45:28;;;;;;;51.50;26.00;;;;;;;8.88;98.65;99906.86;106234;1277;22547;-74
2022/10/01 07:48:02;;;;;;;47.10;24.90;;;;;;;8.96;99.20;99904.06;106114;1279;22544;-74
2022/10/01 07:50:33;;;;;;;41.60;23.30;;;;;;;9.09;99.76;99902.39;105943;1278;22553;-74
2022/10/01 07:53:04;;;;;;;42.00;22.40;;;;;;;9.20;99.92;99896.88;105962;1278;24148;-73
2022/10/01 07:55:36;;;;;;;39.10;21.60;;;;;;;9.31;99.91;99891.81;105923;1278;22703;-72
2022/10/01 07:58:08;;;;;;;40.20;22.30;;;;;;;9.39;99.60;99891.70;105974;1278;22685;-73
2022/10/01 08:00:40;;;;;;;38.30;21.10;;;;;;;9.47;99.81;99888.67;105949;1278;25511;-73
2022/10/01 08:03:12;;;;;;;37.50;20.90;;;;;;;9.56;99.71;99891.00;106030;1278;22531;-73
2022/10/01 08:05:45;;;;;;;36.90;19.40;;;;;;;9.64;99.72;99891.35;106063;1278;25756;-73
2022/10/01 08:08:16;;;;;;;35.00;19.70;;;;;;;9.77;99.98;99896.53;106146;1278;23361;-72
2022/10/01 08:10:49;;;;;;;37.40;19.10;;;;;;;9.92;99.99;99893.95;106051;1279;24365;-72
2022/10/01 08:13:23;;;;;;;39.80;21.30;;;;;;;10.03;99.77;99892.70;106160;1278;22925;-72
2022/10/01 08:15:56;;;;;;;37.80;19.90;;;;;;;10.12;99.80;99885.18;105904;1279;23353;-71
2022/10/01 08:18:27;;;;;;;33.00;17.40;;;;;;;10.23;99.66;99883.79;106009;1278;22619;-71
2022/10/01 08:21:00;;;;;;;34.60;18.00;;;;;;;10.34;99.66;99889.79;105904;1279;23411;-72
2022/10/01 08:23:33;;;;;;;32.20;16.50;;;;;;;10.44;99.70;99884.23;106160;1279;22716;-72
2022/10/01 08:26:08;;;;;;;31.80;16.70;;;;;;;10.56;99.57;99882.89;106026;1278;25330;-72
2022/10/01 08:28:40;;;;;;;27.90;15.00;;;;;;;10.70;99.53;99879.70;105849;1278;23522;-73
2022/10/01 08:31:11;;;;;;;30.70;16.20;;;;;;;10.79;99.16;99869.57;105896;1278;25492;-73
2022/10/01 08:33:43;;;;;;;32.50;15.80;;;;;;;10.87;98.93;99868.13;105826;1277;25244;-73
2022/10/01 08:36:15;;;;;;;31.30;14.30;;;;;;;10.98;98.95;99864.86;105881;1278;22781;-74
2022/10/01 08:38:51;;;;;;;31.50;15.60;;;;;;;11.06;98.82;99863.03;105975;1279;24230;-72
2022/10/01 08:41:40;;;;;;;28.50;14.10;;;;;;;11.14;98.82;99855.64;105946;1279;24389;-74
2022/10/01 08:44:20;;;;;;;26.70;13.10;;;;;;;11.18;98.43;99845.08;105915;1279;22560;-75
2022/10/01 08:46:56;;;;;;;32.50;15.10;;;;;;;11.20;98.30;99844.98;105943;1278;25361;-73
2022/10/01 08:49:37;;;;;;;27.30;13.60;;;;;;;11.24;98.32;99840.34;106097;1278;25256;-72
2022/10/01 08:52:19;;;;;;;30.90;13.40;;;;;;;11.30;98.39;99835.80;106083;1278;22705;-74
2022/10/01 08:54:56;;;;;;;26.20;12.00;;;;;;;11.40;98.53;99829.17;106102;1277;23853;-74
2022/10/01 08:57:35;;;;;;;25.50;12.30;;;;;;;11.47;98.13;99827.61;106093;1278;25597;-73
2022/10/01 09:00:11;;;;;;;23.10;10.00;;;;;;;11.52;97.73;99825.77;106150;1278;22573;-74
2022/10/01 09:02:46;;;;;;;27.20;12.20;;;;;;;11.60;97.89;99823.61;106200;1278;22920;-74
2022/10/01 09:05:31;;;;;;;26.80;11.90;;;;;;;11.68;97.85;99814.48;106666;1278;22555;-74
2022/10/01 09:08:20;;;;;;;26.80;12.80;;;;;;;11.77;97.94;99811.56;107318;1278;23971;-74
2022/10/01 09:10:57;;;;;;;23.60;11.90;;;;;;;11.84;97.76;99810.59;106841;1278;24359;-73
2022/10/01 09:13:40;;;;;;;21.30;11.20;;;;;;;11.92;97.67;99806.88;106037;1278;24217;-73
2022/10/01 09:16:18;;;;;;;23.10;11.90;;;;;;;12.00;97.55;99801.14;105924;1278;22553;-72
2022/10/01 09:19:11;;;;;;;28.00;11.80;;;;;;;12.09;97.40;99794.38;106008;1278;24220;-73
2022/10/01 09:21:55;;;;;;;23.50;11.30;;;;;;;12.19;97.42;99790.31;106055;1278;24764;-73
2022/10/01 09:24:39;;;;;;;21.50;10.20;;;;;;;12.30;97.42;99791.23;106049;1278;24367;-73
2022/10/01 09:27:18;;;;;;;24.50;10.50;;;;;;;12.43;97.35;99790.98;106044;1278;22548;-73
2022/10/01 09:29:55;;;;;;;21.70;10.40;;;;;;;12.55;97.35;99788.48;106025;1278;22590;-74
2022/10/01 09:32:32;;;;;;;24.80;11.70;;;;;;;12.69;97.64;99786.60;106195;1279;22563;-73
2022/10/01 09:35:13;;;;;;;23.90;10.40;;;;;;;12.83;97.09;99783.73;106039;1278;24693;-74
2022/10/01 09:37:52;;;;;;;22.10;10.30;;;;;;;12.94;96.86;99780.15;106020;1278;24230;-73
2022/10/01 09:40:29;;;;;;;21.20;10.00;;;;;;;13.07;96.57;99779.70;106249;1278;25430;-73
2022/10/01 09:43:02;;;;;;;21.40;9.30;;;;;;;13.17;96.10;99772.73;106241;1278;22528;-73
2022/10/01 09:45:33;;;;;;;21.70;9.50;;;;;;;13.27;96.10;99773.04;105948;1278;22547;-73
2022/10/01 09:48:19;;;;;;;19.50;9.30;;;;;;;13.35;95.33;99771.98;105929;1279;24316;-74
2022/10/01 09:50:57;;;;;;;18.40;8.30;;;;;;;13.43;95.20;99765.14;105955;1278;22570;-74
2022/10/01 09:53:37;;;;;;;23.80;8.40;;;;;;;13.49;94.76;99764.08;106238;1278;22566;-73
2022/10/01 09:56:15;;;;;;;23.10;9.10;;;;;;;13.54;94.54;99764.62;106042;1278;23112;-73
2022/10/01 09:58:55;;;;;;;18.90;8.20;;;;;;;13.59;94.74;99761.30;106111;1278;22577;-74
2022/10/01 10:01:38;;;;;;;18.40;8.60;;;;;;;13.62;94.69;99756.60;105990;1278;22644;-73
2022/10/01 10:04:11;;;;;;;21.30;8.70;;;;;;;13.65;94.05;99755.19;105978;1278;22710;-73
2022/10/01 10:06:42;;;;;;;22.70;9.30;;;;;;;13.71;94.53;99753.65;105914;1278;22562;-72
2022/10/01 10:09:18;;;;;;;20.30;8.70;;;;;;;13.77;94.83;99750.31;106015;1278;22566;-73
2022/10/01 10:11:51;;;;;;;15.70;7.60;;;;;;;13.84;94.23;99743.23;106536;1278;23337;-74
2022/10/01 10:14:32;;;;;;;18.50;6.70;;;;;;;13.88;93.92;99734.42;106346;1278;22540;-74
2022/10/01 10:17:11;;;;;;;17.60;7.00;;;;;;;13.94;93.81;99738.09;106226;1278;22751;-75
2022/10/01 10:19:50;;;;;;;20.20;7.40;;;;;;;14.00;93.34;99730.27;106024;1278;23083;-74
2022/10/01 10:22:25;;;;;;;19.90;7.30;;;;;;;14.05;93.18;99726.83;106019;1278;25667;-74
2022/10/01 10:25:10;;;;;;;19.80;8.10;;;;;;;14.10;93.26;99723.75;105950;1278;25314;-74
2022/10/01 10:27:54;;;;;;;25.80;9.00;;;;;;;14.15;93.14;99714.44;105922;1279;25496;-74
2022/10/01 10:30:26;;;;;;;15.80;7.10;;;;;;;14.21;92.87;99708.55;106020;1278;22682;-73
2022/10/01 10:33:07;;;;;;;20.70;8.00;;;;;;;14.25;92.74;99704.04;105979;1278;22564;-73
2022/10/01 10:35:38;;;;;;;21.00;7.60;;;;;;;14.32;92.81;99699.28;106272;1279;22903;-74
2022/10/01 10:38:19;;;;;;;20.10;6.70;;;;;;;14.37;92.58;99700.54;106003;1278;26605;-73
2022/10/01 10:40:51;;;;;;;16.80;7.10;;;;;;;14.44;92.67;99692.80;106037;1279;23130;-74
2022/10/01 10:43:29;;;;;;;17.80;8.00;;;;;;;14.51;92.59;99685.50;105889;1279;22551;-75
2022/10/01 10:46:01;;;;;;;20.30;8.70;;;;;;;14.60;92.73;99687.55;105770;1278;245136;-74
2022/10/01 10:48:37;;;;;;;19.90;8.40;;;;;;;14.69;92.48;99687.04;105913;1278;22700;-74
2022/10/01 10:51:09;;;;;;;15.80;6.50;;;;;;;14.77;92.31;99681.30;105925;1278;24394;-73
2022/10/01 10:53:46;;;;;;;18.20;7.10;;;;;;;14.86;92.21;99677.01;105923;1278;25878;-74
2022/10/01 10:56:21;;;;;;;20.70;5.70;;;;;;;14.95;92.01;99668.41;106019;1278;24272;-73
2022/10/01 10:58:53;;;;;;;18.20;5.70;;;;;;;15.06;91.79;99666.33;106132;1278;24349;-74
2022/10/01 11:01:29;;;;;;;21.50;6.50;;;;;;;15.16;91.52;99659.58;105966;1278;23447;-75
2022/10/01 11:04:02;;;;;;;12.40;3.90;;;;;;;15.23;89.77;99661.25;105981;1278;22617;-73
2022/10/01 11:06:35;;;;;;;12.30;3.60;;;;;;;15.30;89.95;99658.54;105922;1279;25260;-73
2022/10/01 11:09:18;;;;;;;16.30;3.30;;;;;;;15.38;90.13;99652.54;106001;1278;24394;-73
2022/10/01 11:11:58;;;;;;;19.20;4.90;;;;;;;15.46;90.01;99646.39;105987;1279;22557;-73
2022/10/01 11:14:48;;;;;;;17.10;5.70;;;;;;;15.52;89.71;99637.73;106064;1278;26734;-73
2022/10/01 11:17:39;;;;;;;9.00;2.80;;;;;;;15.56;88.79;99635.70;105886;1278;23096;-72
2022/10/01 11:20:25;;;;;;;9.40;2.90;;;;;;;15.61;89.12;99634.57;106103;1279;24302;-73
2022/10/01 11:23:14;;;;;;;10.80;2.40;;;;;;;15.65;87.83;99632.33;105878;1278;22636;-73
2022/10/01 11:25:57;;;;;;;9.80;1.90;;;;;;;15.66;87.10;99631.40;105829;1278;22639;-73
2022/10/01 11:28:44;;;;;;;8.50;1.60;;;;;;;15.67;86.26;99625.14;105955;1279;24216;-73
2022/10/01 11:31:26;;;;;;;5.70;1.40;;;;;;;15.66;86.02;99621.67;105888;1279;22696;-74
2022/10/01 11:34:14;;;;;;;6.20;1.60;;;;;;;15.67;85.74;99619.47;105923;1279;24306;-73
2022/10/01 11:36:57;;;;;;;5.60;1.40;;;;;;;15.66;85.38;99615.59;105832;1279;22613;-72
2022/10/01 11:39:33;;;;;;;6.50;1.40;;;;;;;15.63;85.01;99613.46;105860;1279;22669;-72
2022/10/01 11:42:10;;;;;;;9.70;1.80;;;;;;;15.60;84.67;99613.13;105836;1278;22552;-73
2022/10/01 11:44:45;;;;;;;7.80;1.30;;;;;;;15.57;84.45;99617.11;105870;1279;22558;-73
2022/10/01 11:47:22;;;;;;;6.20;1.40;;;;;;;15.56;84.91;99616.86;105884;1279;22566;-72
2022/10/01 11:50:01;;;;;;;4.70;1.30;;;;;;;15.56;85.09;99611.23;105925;1279;24217;-72
2022/10/01 11:52:38;;;;;;;6.70;1.70;;;;;;;15.53;84.29;99613.08;105822;1278;22581;-73